Weather Data

Pearl Creek Farm: 8878 N Farm Road 75, Walnut Grove MO 65770

<== Previous Day (Monday 11 Jun 2018) | Next Day (Wednesday 13 Jun 2018) ==>

Summary Precipitation Data For Tuesday 12 June 2018

ElementValueUnits
Precipitation0.38"
NotesThunderstorms early this morning.
SourcePearl Creek Farm

Summary Temperature Data For Tuesday 12 June 2018

ElementValueUnits
High Temperature85 oF
Low Temperature69 oF
Average Temperature77 oF
High Humidity90 %
Low Humidity50 %
Average Humidity71 %
SourceSpringfield-Branson National Airport (SGF)

Detail Temperature Data For Tuesday 12 June 2018

Date / TimeTemp (F)RH (%)Dew Pt (F)Report Date / TimeSource
2018-06-12 03:52:00 69 90 66.0 2019-02-02 11:24:24.260017 Springfield-Branson National Airport (SGF)
2018-06-12 04:52:00 69 90 66.0 2019-02-02 11:24:24.260017 Springfield-Branson National Airport (SGF)
2018-06-12 05:52:00 69 87 65.0 2019-02-02 11:24:24.260017 Springfield-Branson National Airport (SGF)
2018-06-12 00:52:00 77 82 71.0 2019-02-02 11:24:24.260017 Springfield-Branson National Airport (SGF)
2018-06-12 01:52:00 77 82 71.0 2019-02-02 11:24:24.260017 Springfield-Branson National Airport (SGF)
2018-06-12 02:52:00 77 79 70.0 2019-02-02 11:24:24.260017 Springfield-Branson National Airport (SGF)
2018-06-12 06:52:00 69 84 64.0 2019-02-02 11:24:24.260017 Springfield-Branson National Airport (SGF)
2018-06-12 07:52:00 72 73 63.0 2019-02-02 11:24:24.260017 Springfield-Branson National Airport (SGF)
2018-06-12 08:52:00 73 76 65.0 2019-02-02 11:24:24.260017 Springfield-Branson National Airport (SGF)
2018-06-12 09:52:00 75 71 65.0 2019-02-02 11:24:24.260017 Springfield-Branson National Airport (SGF)
2018-06-12 10:52:00 78 64 65.0 2019-02-02 11:24:24.260017 Springfield-Branson National Airport (SGF)
2018-06-12 11:52:00 79 62 65.0 2019-02-02 11:24:24.260017 Springfield-Branson National Airport (SGF)
2018-06-12 12:52:00 82 60 67.0 2019-02-02 11:24:24.260017 Springfield-Branson National Airport (SGF)
2018-06-12 13:52:00 83 57 66.0 2019-02-02 11:24:24.260017 Springfield-Branson National Airport (SGF)
2018-06-12 14:52:00 85 55 67.0 2019-02-02 11:24:24.260017 Springfield-Branson National Airport (SGF)
2018-06-12 15:52:00 85 55 67.0 2019-02-02 11:24:24.260017 Springfield-Branson National Airport (SGF)
2018-06-12 16:52:00 85 50 64.0 2019-02-02 11:24:24.260017 Springfield-Branson National Airport (SGF)
2018-06-12 17:52:00 84 51 64.0 2019-02-02 11:24:24.260017 Springfield-Branson National Airport (SGF)
2018-06-12 18:52:00 83 61 68.0 2019-02-02 11:24:24.260017 Springfield-Branson National Airport (SGF)
2018-06-12 19:52:00 80 67 68.0 2019-02-02 11:24:24.260017 Springfield-Branson National Airport (SGF)
2018-06-12 20:52:00 76 74 67.0 2019-02-02 11:24:24.260017 Springfield-Branson National Airport (SGF)
2018-06-12 21:52:00 77 71 67.0 2019-02-02 11:24:24.260017 Springfield-Branson National Airport (SGF)
2018-06-12 22:52:00 75 79 68.0 2019-02-02 11:24:24.260017 Springfield-Branson National Airport (SGF)
2018-06-12 23:52:00 73 84 68.0 2019-02-02 11:24:24.260017 Springfield-Branson National Airport (SGF)

A total of 24 rows are displayed.